sensor_id;sensor_type;location;lat;lon;timestamp;pressure;altitude;pressure_sealevel;temperature;humidity
60427;BME280;46274;47.168;27.604;2022-12-18T00:05:54;100918.78;;;-0.45;72.58
60427;BME280;46274;47.168;27.604;2022-12-18T00:11:58;100876.00;;;-0.74;72.09
60427;BME280;46274;47.168;27.604;2022-12-18T00:18:16;100942.13;;;-0.66;71.95
60427;BME280;46274;47.168;27.604;2022-12-18T00:24:29;100951.53;;;-0.76;72.88
60427;BME280;46274;47.168;27.604;2022-12-18T00:30:34;100945.16;;;-0.90;72.81
60427;BME280;46274;47.168;27.604;2022-12-18T00:36:50;100932.03;;;-0.93;73.41
60427;BME280;46274;47.168;27.604;2022-12-18T00:42:52;100947.66;;;-0.86;73.63
60427;BME280;46274;47.168;27.604;2022-12-18T00:49:03;100835.72;;;-1.66;73.46
60427;BME280;46274;47.168;27.604;2022-12-18T00:55:05;100982.47;;;-0.91;73.87
60427;BME280;46274;47.168;27.604;2022-12-18T01:01:10;100985.16;;;-0.75;73.96
60427;BME280;46274;47.168;27.604;2022-12-18T01:07:18;100982.69;;;-0.78;74.00
60427;BME280;46274;47.168;27.604;2022-12-18T01:13:34;100985.88;;;-0.72;73.87
60427;BME280;46274;47.168;27.604;2022-12-18T01:19:37;100991.28;;;-0.73;74.10
60427;BME280;46274;47.168;27.604;2022-12-18T01:25:42;101000.66;;;-0.66;74.00
60427;BME280;46274;47.168;27.604;2022-12-18T01:31:54;100946.13;;;-1.08;73.28
60427;BME280;46274;47.168;27.604;2022-12-18T01:37:59;101005.31;;;-0.70;72.89
60427;BME280;46274;47.168;27.604;2022-12-18T01:50:47;100969.28;;;-1.10;73.00
60427;BME280;46274;47.168;27.604;2022-12-18T01:56:54;100987.28;;;-1.15;73.20
60427;BME280;46274;47.168;27.604;2022-12-18T02:03:09;101032.63;;;-1.01;73.63
60427;BME280;46274;47.168;27.604;2022-12-18T02:09:26;101067.81;;;-0.96;73.20
60427;BME280;46274;47.168;27.604;2022-12-18T02:15:40;101048.97;;;-1.08;74.31
60427;BME280;46274;47.168;27.604;2022-12-18T02:27:59;101076.13;;;-0.84;74.10
60427;BME280;46274;47.168;27.604;2022-12-18T02:34:10;101092.09;;;-0.84;74.20
60427;BME280;46274;47.168;27.604;2022-12-18T02:40:16;101066.28;;;-1.00;74.45
60427;BME280;46274;47.168;27.604;2022-12-18T02:46:30;101069.84;;;-1.01;73.91
60427;BME280;46274;47.168;27.604;2022-12-18T02:52:55;101101.63;;;-0.80;74.44
60427;BME280;46274;47.168;27.604;2022-12-18T02:59:06;101080.81;;;-1.07;74.48
60427;BME280;46274;47.168;27.604;2022-12-18T03:05:14;101112.03;;;-0.76;74.28
60427;BME280;46274;47.168;27.604;2022-12-18T03:11:18;101093.16;;;-1.06;74.21
60427;BME280;46274;47.168;27.604;2022-12-18T03:17:45;101125.66;;;-0.99;74.66
60427;BME280;46274;47.168;27.604;2022-12-18T03:23:52;101088.16;;;-1.12;74.62
60427;BME280;46274;47.168;27.604;2022-12-18T03:30:08;101128.41;;;-0.66;74.46
60427;BME280;46274;47.168;27.604;2022-12-18T03:36:15;101144.34;;;-1.01;75.62
60427;BME280;46274;47.168;27.604;2022-12-18T03:42:29;101116.25;;;-1.24;75.29
60427;BME280;46274;47.168;27.604;2022-12-18T03:48:38;101162.63;;;-1.12;74.88
60427;BME280;46274;47.168;27.604;2022-12-18T03:54:45;101173.75;;;-1.04;74.54
60427;BME280;46274;47.168;27.604;2022-12-18T04:00:50;101192.59;;;-1.08;74.75
60427;BME280;46274;47.168;27.604;2022-12-18T04:07:03;101205.34;;;-0.79;74.54
60427;BME280;46274;47.168;27.604;2022-12-18T04:13:09;101216.78;;;-0.77;74.57
60427;BME280;46274;47.168;27.604;2022-12-18T04:19:13;101225.69;;;-0.78;74.49
60427;BME280;46274;47.168;27.604;2022-12-18T04:25:15;101238.09;;;-0.96;74.37
60427;BME280;46274;47.168;27.604;2022-12-18T04:31:21;101202.53;;;-1.12;74.68
60427;BME280;46274;47.168;27.604;2022-12-18T04:37:24;101243.28;;;-0.93;74.84
60427;BME280;46274;47.168;27.604;2022-12-18T04:43:26;101258.94;;;-0.86;74.69
60427;BME280;46274;47.168;27.604;2022-12-18T04:49:29;101260.53;;;-1.01;74.37
60427;BME280;46274;47.168;27.604;2022-12-18T04:55:31;101265.97;;;-0.85;74.83
60427;BME280;46274;47.168;27.604;2022-12-18T05:01:35;101281.38;;;-1.11;75.19
60427;BME280;46274;47.168;27.604;2022-12-18T05:07:38;101296.84;;;-1.00;75.22
60427;BME280;46274;47.168;27.604;2022-12-18T05:13:46;101269.31;;;-1.18;74.94
60427;BME280;46274;47.168;27.604;2022-12-18T05:19:48;101269.78;;;-1.48;74.97
60427;BME280;46274;47.168;27.604;2022-12-18T05:25:55;101316.59;;;-1.25;75.19
60427;BME280;46274;47.168;27.604;2022-12-18T05:32:14;101334.97;;;-1.39;75.21
60427;BME280;46274;47.168;27.604;2022-12-18T05:38:21;101312.63;;;-1.74;75.26
60427;BME280;46274;47.168;27.604;2022-12-18T05:44:24;101358.97;;;-1.61;76.55
60427;BME280;46274;47.168;27.604;2022-12-18T05:50:27;101377.19;;;-1.72;76.57
60427;BME280;46274;47.168;27.604;2022-12-18T05:56:29;101378.16;;;-1.95;76.54
60427;BME280;46274;47.168;27.604;2022-12-18T06:02:32;101412.50;;;-1.70;76.44
60427;BME280;46274;47.168;27.604;2022-12-18T06:08:37;101394.69;;;-1.89;76.85
60427;BME280;46274;47.168;27.604;2022-12-18T06:14:46;101390.41;;;-2.13;77.14
60427;BME280;46274;47.168;27.604;2022-12-18T06:20:58;101369.94;;;-2.32;76.83
60427;BME280;46274;47.168;27.604;2022-12-18T06:27:01;101432.09;;;-1.93;77.44
60427;BME280;46274;47.168;27.604;2022-12-18T06:33:06;101461.53;;;-1.78;77.17
60427;BME280;46274;47.168;27.604;2022-12-18T06:39:11;101482.94;;;-1.81;76.57
60427;BME280;46274;47.168;27.604;2022-12-18T06:45:15;101485.81;;;-1.87;76.82
60427;BME280;46274;47.168;27.604;2022-12-18T06:51:22;101494.50;;;-1.61;76.60
60427;BME280;46274;47.168;27.604;2022-12-18T06:57:26;101512.19;;;-1.60;76.33
60427;BME280;46274;47.168;27.604;2022-12-18T07:03:31;101482.63;;;-1.52;75.88
60427;BME280;46274;47.168;27.604;2022-12-18T07:09:36;101517.25;;;-1.54;76.00
60427;BME280;46274;47.168;27.604;2022-12-18T07:15:40;101505.78;;;-1.55;76.05
60427;BME280;46274;47.168;27.604;2022-12-18T07:21:45;101546.91;;;-1.21;75.32
60427;BME280;46274;47.168;27.604;2022-12-18T07:28:01;101550.69;;;-1.26;74.85
60427;BME280;46274;47.168;27.604;2022-12-18T07:34:20;101571.16;;;-1.28;75.70
60427;BME280;46274;47.168;27.604;2022-12-18T07:40:28;101576.06;;;-1.19;74.80
60427;BME280;46274;47.168;27.604;2022-12-18T07:46:31;101585.47;;;-1.11;75.76
60427;BME280;46274;47.168;27.604;2022-12-18T07:52:37;101596.03;;;-1.09;75.19
60427;BME280;46274;47.168;27.604;2022-12-18T07:58:49;101619.59;;;-1.22;75.85
60427;BME280;46274;47.168;27.604;2022-12-18T08:04:55;101624.38;;;-1.30;76.58
60427;BME280;46274;47.168;27.604;2022-12-18T08:11:01;101630.88;;;-1.15;76.06
60427;BME280;46274;47.168;27.604;2022-12-18T08:17:07;101669.97;;;-1.17;76.28
60427;BME280;46274;47.168;27.604;2022-12-18T08:23:10;101663.16;;;-1.24;76.87
60427;BME280;46274;47.168;27.604;2022-12-18T08:29:12;101690.75;;;-1.05;76.49
60427;BME280;46274;47.168;27.604;2022-12-18T08:35:21;101701.25;;;-1.02;75.14
60427;BME280;46274;47.168;27.604;2022-12-18T08:41:28;101708.91;;;-1.16;74.43
60427;BME280;46274;47.168;27.604;2022-12-18T08:47:41;101652.78;;;-1.76;76.46
60427;BME280;46274;47.168;27.604;2022-12-18T08:53:49;101709.78;;;-1.38;76.15
60427;BME280;46274;47.168;27.604;2022-12-18T09:00:00;101605.25;;;-1.84;74.56
60427;BME280;46274;47.168;27.604;2022-12-18T09:06:19;101704.53;;;-1.39;74.00
60427;BME280;46274;47.168;27.604;2022-12-18T09:12:22;101720.56;;;-1.42;74.47
60427;BME280;46274;47.168;27.604;2022-12-18T09:18:34;101530.09;;;-2.56;74.22
60427;BME280;46274;47.168;27.604;2022-12-18T09:24:54;101615.88;;;-1.84;73.83
60427;BME280;46274;47.168;27.604;2022-12-18T09:31:11;101674.47;;;-1.41;73.28
60427;BME280;46274;47.168;27.604;2022-12-18T09:44:50;101705.53;;;-1.42;72.55
60427;BME280;46274;47.168;27.604;2022-12-18T09:51:32;101720.19;;;-1.55;73.04
60427;BME280;46274;47.168;27.604;2022-12-18T09:57:47;101740.06;;;-1.65;72.60
60427;BME280;46274;47.168;27.604;2022-12-18T10:03:52;101702.09;;;-1.92;72.47
60427;BME280;46274;47.168;27.604;2022-12-18T10:10:04;101692.22;;;-1.89;73.68
60427;BME280;46274;47.168;27.604;2022-12-18T10:16:17;101620.22;;;-2.53;72.51
60427;BME280;46274;47.168;27.604;2022-12-18T10:28:42;101779.53;;;-1.78;72.21
60427;BME280;46274;47.168;27.604;2022-12-18T10:34:51;101713.78;;;-2.22;71.62
60427;BME280;46274;47.168;27.604;2022-12-18T10:41:05;101774.59;;;-1.65;72.54
60427;BME280;46274;47.168;27.604;2022-12-18T10:47:27;101670.91;;;-2.36;71.11
60427;BME280;46274;47.168;27.604;2022-12-18T10:53:31;101782.81;;;-1.71;71.66
60427;BME280;46274;47.168;27.604;2022-12-18T10:59:53;101780.50;;;-1.81;72.53
60427;BME280;46274;47.168;27.604;2022-12-18T11:06:08;101794.25;;;-1.69;71.10
60427;BME280;46274;47.168;27.604;2022-12-18T11:12:19;101658.13;;;-2.25;71.47
60427;BME280;46274;47.168;27.604;2022-12-18T11:18:33;101809.94;;;-1.87;71.94
60427;BME280;46274;47.168;27.604;2022-12-18T11:24:40;101782.69;;;-1.68;71.03
60427;BME280;46274;47.168;27.604;2022-12-18T11:31:27;101824.19;;;-1.89;71.56
60427;BME280;46274;47.168;27.604;2022-12-18T11:37:33;101802.56;;;-1.79;71.70
60427;BME280;46274;47.168;27.604;2022-12-18T11:43:50;101830.97;;;-1.56;71.09
60427;BME280;46274;47.168;27.604;2022-12-18T11:49:56;101834.06;;;-1.68;71.02
60427;BME280;46274;47.168;27.604;2022-12-18T11:56:32;101840.72;;;-1.81;71.16
60427;BME280;46274;47.168;27.604;2022-12-18T12:09:48;101859.22;;;-2.03;71.75
60427;BME280;46274;47.168;27.604;2022-12-18T12:35:55;101841.09;;;-1.92;71.50
60427;BME280;46274;47.168;27.604;2022-12-18T12:42:13;101890.66;;;-1.64;71.24
60427;BME280;46274;47.168;27.604;2022-12-18T12:48:49;101893.50;;;-1.70;71.28
60427;BME280;46274;47.168;27.604;2022-12-18T12:54:58;101889.22;;;-1.74;72.55
60427;BME280;46274;47.168;27.604;2022-12-18T13:08:03;101881.28;;;-2.01;71.89
60427;BME280;46274;47.168;27.604;2022-12-18T13:14:25;101912.00;;;-1.94;71.68
60427;BME280;46274;47.168;27.604;2022-12-18T13:20:44;101917.53;;;-1.73;71.76
60427;BME280;46274;47.168;27.604;2022-12-18T13:26:56;101922.91;;;-1.75;71.94
60427;BME280;46274;47.168;27.604;2022-12-18T13:45:41;101944.88;;;-2.25;72.26
60427;BME280;46274;47.168;27.604;2022-12-18T13:51:49;101956.25;;;-2.49;71.92
60427;BME280;46274;47.168;27.604;2022-12-18T13:58:03;101963.75;;;-2.64;72.64
60427;BME280;46274;47.168;27.604;2022-12-18T14:04:12;101980.59;;;-2.65;72.67
60427;BME280;46274;47.168;27.604;2022-12-18T14:10:17;101724.81;;;-4.35;72.43
60427;BME280;46274;47.168;27.604;2022-12-18T14:16:42;101951.44;;;-3.27;71.96
60427;BME280;46274;47.168;27.604;2022-12-18T14:22:47;101964.25;;;-3.44;72.29
60427;BME280;46274;47.168;27.604;2022-12-18T14:28:50;102017.50;;;-3.19;73.49
60427;BME280;46274;47.168;27.604;2022-12-18T14:34:53;102024.69;;;-3.24;74.39
60427;BME280;46274;47.168;27.604;2022-12-18T14:41:00;102032.53;;;-3.20;73.55
60427;BME280;46274;47.168;27.604;2022-12-18T14:47:03;102025.56;;;-3.24;73.63
60427;BME280;46274;47.168;27.604;2022-12-18T14:53:05;101994.28;;;-3.44;73.53
60427;BME280;46274;47.168;27.604;2022-12-18T15:05:28;102069.41;;;-3.11;73.64
60427;BME280;46274;47.168;27.604;2022-12-18T15:17:42;102072.97;;;-3.12;73.68
60427;BME280;46274;47.168;27.604;2022-12-18T15:23:50;102082.16;;;-3.25;73.62
60427;BME280;46274;47.168;27.604;2022-12-18T15:30:23;101935.28;;;-4.21;74.02
60427;BME280;46274;47.168;27.604;2022-12-18T15:36:29;102035.13;;;-3.51;73.88
60427;BME280;46274;47.168;27.604;2022-12-18T15:42:32;102090.25;;;-3.31;74.02
60427;BME280;46274;47.168;27.604;2022-12-18T15:48:57;102106.78;;;-3.20;73.88
60427;BME280;46274;47.168;27.604;2022-12-18T15:55:04;102099.72;;;-3.21;73.54
60427;BME280;46274;47.168;27.604;2022-12-18T16:01:28;102113.44;;;-3.39;73.40
60427;BME280;46274;47.168;27.604;2022-12-18T16:07:43;102125.28;;;-3.18;72.79
60427;BME280;46274;47.168;27.604;2022-12-18T16:13:59;102153.59;;;-3.20;72.97
60427;BME280;46274;47.168;27.604;2022-12-18T16:20:02;102106.75;;;-3.56;72.92
60427;BME280;46274;47.168;27.604;2022-12-18T16:26:05;102159.03;;;-3.25;73.40
60427;BME280;46274;47.168;27.604;2022-12-18T16:32:19;102145.13;;;-3.35;73.67
60427;BME280;46274;47.168;27.604;2022-12-18T16:38:21;102104.78;;;-3.47;73.34
60427;BME280;46274;47.168;27.604;2022-12-18T16:44:28;102189.56;;;-3.09;73.50
60427;BME280;46274;47.168;27.604;2022-12-18T16:50:32;102187.75;;;-3.07;73.93
60427;BME280;46274;47.168;27.604;2022-12-18T16:56:39;102138.22;;;-3.42;74.34
60427;BME280;46274;47.168;27.604;2022-12-18T17:02:43;102150.50;;;-3.38;73.76
60427;BME280;46274;47.168;27.604;2022-12-18T17:09:00;102193.84;;;-3.01;74.86
60427;BME280;46274;47.168;27.604;2022-12-18T17:15:03;102200.09;;;-3.05;75.09
60427;BME280;46274;47.168;27.604;2022-12-18T17:21:08;102196.94;;;-3.20;74.70
60427;BME280;46274;47.168;27.604;2022-12-18T17:27:11;102207.72;;;-3.29;75.48
60427;BME280;46274;47.168;27.604;2022-12-18T17:33:19;102032.63;;;-4.35;75.16
60427;BME280;46274;47.168;27.604;2022-12-18T17:39:51;102050.97;;;-4.27;75.06
60427;BME280;46274;47.168;27.604;2022-12-18T17:46:04;102229.81;;;-3.29;75.15
60427;BME280;46274;47.168;27.604;2022-12-18T17:52:11;102226.44;;;-3.35;75.37
60427;BME280;46274;47.168;27.604;2022-12-18T17:58:16;102241.22;;;-3.25;74.94
60427;BME280;46274;47.168;27.604;2022-12-18T18:04:22;102253.31;;;-3.13;74.51
60427;BME280;46274;47.168;27.604;2022-12-18T18:10:24;102221.94;;;-3.32;74.51
60427;BME280;46274;47.168;27.604;2022-12-18T18:16:38;102229.44;;;-3.51;74.63
60427;BME280;46274;47.168;27.604;2022-12-18T18:22:51;102281.19;;;-3.34;75.23
60427;BME280;46274;47.168;27.604;2022-12-18T18:29:21;102273.66;;;-3.14;74.91
60427;BME280;46274;47.168;27.604;2022-12-18T18:35:34;102230.91;;;-3.37;74.94
60427;BME280;46274;47.168;27.604;2022-12-18T18:41:56;102274.59;;;-3.15;74.99
60427;BME280;46274;47.168;27.604;2022-12-18T18:48:03;102256.22;;;-3.24;74.66
60427;BME280;46274;47.168;27.604;2022-12-18T18:54:10;102296.00;;;-3.24;75.09
60427;BME280;46274;47.168;27.604;2022-12-18T19:00:23;102300.28;;;-3.18;74.89
60427;BME280;46274;47.168;27.604;2022-12-18T19:06:31;102252.97;;;-3.37;73.83
60427;BME280;46274;47.168;27.604;2022-12-18T19:12:43;102242.50;;;-3.43;74.27
60427;BME280;46274;47.168;27.604;2022-12-18T19:19:08;102303.84;;;-3.19;72.04
60427;BME280;46274;47.168;27.604;2022-12-18T19:25:18;102317.88;;;-3.14;72.65
60427;BME280;46274;47.168;27.604;2022-12-18T19:31:40;102302.22;;;-3.26;72.40
60427;BME280;46274;47.168;27.604;2022-12-18T19:37:55;102273.41;;;-3.43;72.41
60427;BME280;46274;47.168;27.604;2022-12-18T19:44:00;102350.41;;;-3.08;72.25
60427;BME280;46274;47.168;27.604;2022-12-18T19:50:20;102344.50;;;-3.20;72.49
60427;BME280;46274;47.168;27.604;2022-12-18T19:56:24;102355.88;;;-3.14;72.66
60427;BME280;46274;47.168;27.604;2022-12-18T20:02:52;102137.84;;;-4.48;70.44
60427;BME280;46274;47.168;27.604;2022-12-18T20:09:08;102347.59;;;-3.40;71.46
60427;BME280;46274;47.168;27.604;2022-12-18T20:15:34;102159.16;;;-4.57;70.71
60427;BME280;46274;47.168;27.604;2022-12-18T20:21:54;102383.00;;;-3.44;70.93
60427;BME280;46274;47.168;27.604;2022-12-18T20:27:56;102377.63;;;-3.41;70.41
60427;BME280;46274;47.168;27.604;2022-12-18T20:34:10;102384.13;;;-3.56;69.76
60427;BME280;46274;47.168;27.604;2022-12-18T20:40:22;102344.09;;;-3.89;69.52
60427;BME280;46274;47.168;27.604;2022-12-18T20:46:43;102289.97;;;-4.22;69.41
60427;BME280;46274;47.168;27.604;2022-12-18T20:53:20;102403.22;;;-3.39;69.72
60427;BME280;46274;47.168;27.604;2022-12-18T20:59:30;102385.28;;;-3.71;70.57
60427;BME280;46274;47.168;27.604;2022-12-18T21:05:39;102398.19;;;-3.53;70.34
60427;BME280;46274;47.168;27.604;2022-12-18T21:18:17;102404.41;;;-3.54;70.22
60427;BME280;46274;47.168;27.604;2022-12-18T21:24:20;102416.78;;;-3.56;69.79
60427;BME280;46274;47.168;27.604;2022-12-18T21:30:38;102382.78;;;-3.80;69.33
60427;BME280;46274;47.168;27.604;2022-12-18T21:37:02;102270.91;;;-4.41;69.33
60427;BME280;46274;47.168;27.604;2022-12-18T21:43:08;102403.84;;;-3.73;69.68
60427;BME280;46274;47.168;27.604;2022-12-18T21:49:29;102428.75;;;-3.83;70.82
60427;BME280;46274;47.168;27.604;2022-12-18T21:55:43;102438.09;;;-3.62;70.95
60427;BME280;46274;47.168;27.604;2022-12-18T22:01:51;102436.22;;;-3.57;70.22
60427;BME280;46274;47.168;27.604;2022-12-18T22:08:04;102429.31;;;-3.64;70.02
60427;BME280;46274;47.168;27.604;2022-12-18T22:14:20;102294.16;;;-4.60;69.38
60427;BME280;46274;47.168;27.604;2022-12-18T22:20:24;102382.44;;;-4.10;69.85
60427;BME280;46274;47.168;27.604;2022-12-18T22:26:35;102441.19;;;-3.88;69.72
60427;BME280;46274;47.168;27.604;2022-12-18T22:32:51;102394.03;;;-4.19;70.43
60427;BME280;46274;47.168;27.604;2022-12-18T22:39:11;102458.06;;;-3.93;69.38
60427;BME280;46274;47.168;27.604;2022-12-18T22:45:33;102367.34;;;-4.62;70.05
60427;BME280;46274;47.168;27.604;2022-12-18T22:52:04;102463.56;;;-4.06;70.39
60427;BME280;46274;47.168;27.604;2022-12-18T22:58:13;102456.75;;;-4.21;69.31
60427;BME280;46274;47.168;27.604;2022-12-18T23:04:26;102501.53;;;-4.08;69.23
60427;BME280;46274;47.168;27.604;2022-12-18T23:10:51;102487.41;;;-4.07;69.55
60427;BME280;46274;47.168;27.604;2022-12-18T23:17:04;102492.72;;;-4.09;69.91
60427;BME280;46274;47.168;27.604;2022-12-18T23:23:35;102489.91;;;-3.97;70.41
60427;BME280;46274;47.168;27.604;2022-12-18T23:30:00;102480.97;;;-3.89;70.66
60427;BME280;46274;47.168;27.604;2022-12-18T23:36:13;102492.31;;;-3.81;70.65
60427;BME280;46274;47.168;27.604;2022-12-18T23:42:35;102495.94;;;-3.90;68.81
60427;BME280;46274;47.168;27.604;2022-12-18T23:48:59;102507.63;;;-4.02;69.94
60427;BME280;46274;47.168;27.604;2022-12-18T23:55:09;102494.16;;;-3.86;70.11
